createdAt,value
2023-03-30T00:05:48.270Z,99.90
2023-03-30T00:15:52.083Z,99.90
2023-03-30T00:25:57.429Z,99.90
2023-03-30T00:36:01.170Z,99.90
2023-03-30T00:46:06.356Z,99.90
2023-03-30T00:56:12.850Z,99.90
2023-03-30T01:06:21.867Z,99.90
2023-03-30T01:16:31.251Z,99.90
2023-03-30T01:26:47.466Z,99.90
2023-03-30T01:37:14.481Z,99.90
2023-03-30T01:47:25.228Z,99.90
2023-03-30T01:57:34.988Z,99.90
2023-03-30T02:07:42.443Z,99.90
2023-03-30T02:17:47.755Z,99.90
2023-03-30T02:27:53.019Z,99.90
2023-03-30T02:38:30.838Z,99.90
2023-03-30T02:48:43.775Z,99.90
2023-03-30T02:58:55.078Z,99.90
2023-03-30T03:09:00.608Z,99.90
2023-03-30T03:19:04.465Z,99.90
2023-03-30T03:29:09.501Z,99.90
2023-03-30T03:39:13.307Z,99.90
2023-03-30T03:49:18.265Z,99.90
2023-03-30T03:59:22.256Z,99.90
2023-03-30T04:09:29.533Z,99.90
2023-03-30T04:19:33.380Z,99.90
2023-03-30T04:29:40.814Z,99.90
2023-03-30T04:39:44.676Z,99.90
2023-03-30T04:49:49.645Z,99.90
2023-03-30T04:59:54.676Z,99.90
2023-03-30T05:09:59.741Z,99.90
2023-03-30T05:20:08.416Z,99.90
2023-03-30T05:30:14.929Z,99.90
2023-03-30T05:40:19.982Z,99.90
2023-03-30T05:50:25.064Z,99.90
2023-03-30T06:00:29.092Z,99.90
2023-03-30T06:10:36.688Z,99.90
2023-03-30T06:20:40.826Z,99.90
2023-03-30T06:30:48.705Z,99.90
2023-03-30T06:40:52.512Z,99.90
2023-03-30T06:50:57.943Z,99.90
2023-03-30T07:01:11.225Z,99.90
2023-03-30T07:11:16.395Z,99.90
2023-03-30T07:21:20.764Z,99.90
2023-03-30T07:31:27.414Z,99.90
2023-03-30T07:41:31.243Z,99.90
2023-03-30T07:51:36.209Z,99.90
2023-03-30T08:01:40.701Z,99.90
2023-03-30T08:11:45.856Z,99.90
2023-03-30T08:21:49.870Z,99.90
2023-03-30T08:31:54.904Z,99.90
2023-03-30T08:42:21.444Z,99.90
2023-03-30T08:52:27.596Z,99.90
2023-03-30T09:02:37.960Z,99.90
2023-03-30T09:12:46.863Z,99.90
2023-03-30T09:22:52.075Z,99.90
2023-03-30T09:33:01.887Z,99.90
2023-03-30T09:43:16.248Z,99.90
2023-03-30T09:53:25.977Z,99.90
2023-03-30T10:03:29.965Z,99.90
2023-03-30T10:13:38.489Z,99.90
2023-03-30T10:23:44.962Z,99.90
2023-03-30T10:33:50.685Z,99.90
2023-03-30T10:43:54.381Z,99.90
2023-03-30T10:54:10.528Z,99.90
2023-03-30T11:04:24.591Z,99.90
2023-03-30T11:14:40.809Z,99.90
2023-03-30T11:24:47.625Z,98.80
2023-03-30T11:35:02.135Z,97.80
2023-03-30T11:45:20.661Z,95.70
2023-03-30T11:55:42.439Z,94.70
2023-03-30T12:05:48.639Z,94.50
2023-03-30T12:15:59.496Z,95.50
2023-03-30T12:26:18.554Z,93.10
2023-03-30T12:36:34.269Z,94.60
2023-03-30T12:46:44.505Z,99.90
2023-03-30T12:56:59.971Z,99.90
2023-03-30T13:07:06.859Z,99.90
2023-03-30T13:17:19.673Z,99.00
2023-03-30T13:27:30.988Z,99.90
2023-03-30T13:38:07.303Z,99.90
2023-03-30T13:48:36.205Z,99.90
2023-03-30T13:58:46.919Z,99.90
2023-03-30T14:08:52.348Z,99.90
2023-03-30T14:19:12.499Z,99.90
2023-03-30T14:29:30.531Z,99.90
2023-03-30T14:39:43.154Z,99.90
2023-03-30T14:49:47.803Z,99.90
2023-03-30T14:59:57.197Z,99.90
2023-03-30T15:10:01.674Z,99.90
2023-03-30T15:20:10.968Z,99.90
2023-03-30T15:30:27.913Z,99.90
2023-03-30T15:40:36.949Z,99.90
2023-03-30T15:50:41.792Z,99.90
2023-03-30T16:00:47.926Z,99.90
2023-03-30T16:10:51.659Z,99.90
2023-03-30T16:20:56.703Z,99.90
2023-03-30T16:31:06.275Z,99.90
2023-03-30T16:41:17.405Z,99.90
2023-03-30T16:51:21.173Z,99.90
2023-03-30T17:01:26.503Z,99.90
2023-03-30T17:11:30.347Z,99.20
2023-03-30T17:21:35.519Z,99.10
2023-03-30T17:31:39.323Z,98.50
2023-03-30T17:41:44.452Z,99.90
2023-03-30T17:51:48.083Z,99.90
2023-03-30T18:01:53.133Z,99.90
2023-03-30T18:11:56.887Z,99.90
2023-03-30T18:22:01.912Z,99.90
2023-03-30T18:32:06.370Z,99.90
2023-03-30T18:42:11.496Z,99.90
2023-03-30T18:52:16.718Z,99.90
2023-03-30T19:02:21.883Z,99.90
2023-03-30T19:12:25.571Z,99.90
2023-03-30T19:22:30.553Z,99.90
2023-03-30T19:32:34.514Z,99.90
2023-03-30T19:42:39.753Z,99.90
2023-03-30T19:52:43.754Z,99.90
2023-03-30T20:02:51.475Z,99.90
2023-03-30T20:12:55.460Z,99.90
2023-03-30T20:23:00.873Z,99.90
2023-03-30T20:33:07.806Z,99.90
2023-03-30T20:43:13.671Z,99.90
2023-03-30T20:53:17.688Z,99.90
2023-03-30T21:03:26.033Z,99.90
2023-03-30T21:13:30.180Z,99.90
2023-03-30T21:23:36.852Z,99.90
2023-03-30T21:33:42.272Z,99.90
2023-03-30T21:43:48.674Z,99.90
2023-03-30T21:53:54.894Z,99.90
2023-03-30T22:04:00.144Z,99.90
2023-03-30T22:14:04.216Z,99.90
2023-03-30T22:24:12.602Z,99.90
2023-03-30T22:34:16.863Z,99.90
2023-03-30T22:44:22.243Z,99.90
2023-03-30T22:54:25.988Z,99.90
2023-03-30T23:04:31.164Z,99.90
2023-03-30T23:14:37.914Z,99.90
2023-03-30T23:24:42.984Z,99.90
2023-03-30T23:34:46.874Z,99.90
2023-03-30T23:44:51.935Z,99.90
2023-03-30T23:54:55.799Z,99.90
